createdAt,value
2018-07-23T00:02:28.736Z,26.75
2018-07-23T00:05:02.205Z,29.12
2018-07-23T00:07:35.648Z,26.62
2018-07-23T00:10:09.076Z,28.95
2018-07-23T00:12:42.473Z,29.90
2018-07-23T00:15:15.894Z,26.87
2018-07-23T00:17:49.405Z,26.75
2018-07-23T00:20:22.841Z,24.47
2018-07-23T00:22:56.268Z,28.87
2018-07-23T00:25:30.103Z,25.00
2018-07-23T00:28:03.531Z,26.77
2018-07-23T00:30:37.041Z,30.85
2018-07-23T00:33:10.460Z,31.62
2018-07-23T00:35:43.892Z,30.95
2018-07-23T00:38:17.312Z,31.42
2018-07-23T00:40:50.736Z,26.82
2018-07-23T00:43:24.141Z,31.48
2018-07-23T00:45:57.561Z,25.30
2018-07-23T00:48:30.984Z,27.13
2018-07-23T00:51:04.485Z,28.27
2018-07-23T00:53:37.902Z,28.65
2018-07-23T00:56:11.341Z,36.40
2018-07-23T00:58:51.293Z,25.88
2018-07-23T01:01:24.715Z,32.53
2018-07-23T01:03:58.164Z,29.85
2018-07-23T01:06:31.569Z,31.70
2018-07-23T01:09:07.325Z,28.38
2018-07-23T01:11:40.751Z,29.57
2018-07-23T01:14:14.150Z,25.30
2018-07-23T01:16:47.572Z,27.77
2018-07-23T01:19:20.989Z,27.35
2018-07-23T01:21:54.452Z,28.12
2018-07-23T01:24:27.909Z,24.15
2018-07-23T01:27:01.291Z,24.55
2018-07-23T01:29:34.715Z,26.05
2018-07-23T01:32:08.172Z,26.82
2018-07-23T01:34:41.581Z,31.82
2018-07-23T01:37:15.412Z,34.25
2018-07-23T01:39:48.863Z,30.80
2018-07-23T01:42:22.289Z,29.37
2018-07-23T01:44:55.386Z,29.23
2018-07-23T01:47:28.788Z,23.73
2018-07-23T01:50:02.202Z,24.30
2018-07-23T01:52:35.598Z,29.77
2018-07-23T01:55:09.072Z,27.90
2018-07-23T01:57:42.481Z,31.87
2018-07-23T02:00:15.943Z,25.48
2018-07-23T02:02:49.371Z,34.73
2018-07-23T02:05:22.812Z,24.00
2018-07-23T02:07:56.208Z,29.00
2018-07-23T02:10:29.651Z,29.10
2018-07-23T02:13:03.080Z,28.57
2018-07-23T02:15:36.502Z,32.70
2018-07-23T02:18:09.931Z,31.70
2018-07-23T02:20:43.323Z,28.50
2018-07-23T02:23:16.783Z,28.45
2018-07-23T02:25:50.152Z,28.47
2018-07-23T02:28:23.596Z,30.48
2018-07-23T02:30:57.012Z,26.57
2018-07-23T02:33:30.438Z,28.20
2018-07-23T02:36:03.840Z,31.50
2018-07-23T02:38:37.264Z,26.33
2018-07-23T02:41:10.742Z,29.37
2018-07-23T02:43:44.168Z,24.27
2018-07-23T02:46:17.619Z,23.70
2018-07-23T02:48:51.035Z,34.53
2018-07-23T02:51:24.427Z,41.40
2018-07-23T02:53:57.867Z,36.65
2018-07-23T02:56:31.318Z,31.77
2018-07-23T02:59:04.783Z,35.15
2018-07-23T03:01:38.238Z,25.12
2018-07-23T03:04:11.684Z,30.68
2018-07-23T03:06:45.085Z,27.07
2018-07-23T03:09:18.207Z,34.92
2018-07-23T03:11:51.629Z,28.45
2018-07-23T03:14:25.051Z,32.58
2018-07-23T03:16:58.440Z,29.48
2018-07-23T03:19:31.851Z,26.27
2018-07-23T03:22:05.272Z,32.78
2018-07-23T03:24:38.662Z,28.32
2018-07-23T03:27:12.079Z,26.97
2018-07-23T03:29:45.511Z,25.27
2018-07-23T03:32:18.893Z,25.08
2018-07-23T03:34:52.319Z,30.85
2018-07-23T03:37:25.806Z,25.95
2018-07-23T03:39:59.237Z,28.92
2018-07-23T03:42:32.779Z,32.67
2018-07-23T03:45:06.759Z,24.25
2018-07-23T03:47:40.188Z,30.20
2018-07-23T03:50:13.588Z,30.88
2018-07-23T03:52:47.032Z,32.98
2018-07-23T03:55:20.493Z,35.73
2018-07-23T03:57:53.948Z,27.10
2018-07-23T04:00:27.052Z,32.10
2018-07-23T04:03:00.575Z,28.83
2018-07-23T04:05:33.968Z,32.25
2018-07-23T04:08:07.460Z,36.33
2018-07-23T04:10:40.976Z,33.75
2018-07-23T04:13:14.376Z,29.95
2018-07-23T04:15:47.783Z,31.23
2018-07-23T04:18:21.249Z,33.85
2018-07-23T04:20:54.653Z,35.92
2018-07-23T04:23:28.092Z,26.33
2018-07-23T04:26:01.514Z,28.35
2018-07-23T04:28:34.966Z,34.60
2018-07-23T04:31:08.401Z,38.10
2018-07-23T04:33:41.820Z,34.00
2018-07-23T04:36:15.289Z,31.23
2018-07-23T04:38:48.720Z,31.30
2018-07-23T04:41:22.138Z,28.70
2018-07-23T04:43:55.578Z,33.10
2018-07-23T04:46:28.996Z,30.48
2018-07-23T04:49:02.128Z,29.98
2018-07-23T04:51:35.573Z,31.23
2018-07-23T04:54:09.030Z,40.23
2018-07-23T04:56:42.541Z,29.00
2018-07-23T04:59:15.882Z,28.27
2018-07-23T05:01:49.365Z,35.23
2018-07-23T05:04:22.768Z,26.90
2018-07-23T05:06:56.238Z,26.93
2018-07-23T05:09:29.663Z,28.73
2018-07-23T05:12:03.113Z,30.02
2018-07-23T05:14:36.522Z,28.52
2018-07-23T05:17:09.962Z,37.53
2018-07-23T05:19:43.463Z,32.40
2018-07-23T05:22:16.868Z,35.73
2018-07-23T05:24:50.333Z,24.07
2018-07-23T05:27:23.732Z,31.42
2018-07-23T05:29:57.206Z,32.35
2018-07-23T05:32:30.640Z,35.75
2018-07-23T05:35:04.170Z,35.40
2018-07-23T05:37:37.538Z,25.95
2018-07-23T05:40:11.030Z,25.68
2018-07-23T05:42:44.427Z,31.82
2018-07-23T05:45:17.872Z,30.35
2018-07-23T05:47:51.311Z,28.67
2018-07-23T05:50:24.724Z,33.10
2018-07-23T05:52:58.179Z,31.02
2018-07-23T05:55:31.637Z,33.50
2018-07-23T05:58:05.093Z,31.10
2018-07-23T06:00:38.540Z,35.40
2018-07-23T06:03:12.029Z,42.93
2018-07-23T06:05:45.467Z,30.45
2018-07-23T06:08:18.944Z,47.03
2018-07-23T06:10:52.437Z,32.67
2018-07-23T06:13:25.911Z,39.08
2018-07-23T06:15:59.364Z,32.23
2018-07-23T06:18:32.939Z,48.28
2018-07-23T06:21:06.408Z,30.62
2018-07-23T06:23:39.863Z,31.07
2018-07-23T06:26:13.308Z,31.77
2018-07-23T06:28:46.753Z,32.20
2018-07-23T06:31:20.185Z,28.02
2018-07-23T06:33:53.697Z,26.17
2018-07-23T06:36:27.092Z,30.25
2018-07-23T06:39:00.511Z,28.42
2018-07-23T06:41:33.921Z,28.07
2018-07-23T06:44:07.805Z,33.33
2018-07-23T06:46:41.498Z,30.10
2018-07-23T06:49:14.921Z,31.68
2018-07-23T06:51:48.346Z,28.95
2018-07-23T06:54:21.815Z,32.17
2018-07-23T06:56:55.256Z,30.72
2018-07-23T06:59:28.679Z,33.02
2018-07-23T07:02:02.131Z,28.32
2018-07-23T07:04:35.618Z,28.73
2018-07-23T07:07:09.033Z,27.85
2018-07-23T07:09:42.493Z,26.15
2018-07-23T07:12:15.885Z,28.42
2018-07-23T07:14:49.298Z,29.23
2018-07-23T07:17:22.697Z,35.65
2018-07-23T07:19:55.822Z,22.98
2018-07-23T07:22:29.220Z,23.70
2018-07-23T07:25:02.668Z,24.18
2018-07-23T07:27:36.069Z,32.55
2018-07-23T07:30:10.015Z,23.98
2018-07-23T07:32:43.425Z,24.82
2018-07-23T07:35:16.908Z,19.32
2018-07-23T07:37:50.398Z,26.25
2018-07-23T07:40:23.862Z,24.77
2018-07-23T07:42:57.321Z,24.77
2018-07-23T07:45:30.761Z,23.85
2018-07-23T07:48:04.237Z,24.23
2018-07-23T07:50:37.661Z,25.92
2018-07-23T07:53:11.096Z,22.87
2018-07-23T07:55:44.538Z,19.87
2018-07-23T07:58:18.026Z,21.77
2018-07-23T08:00:51.430Z,22.98
2018-07-23T08:03:24.920Z,23.27
2018-07-23T08:05:58.327Z,21.35
2018-07-23T08:08:31.799Z,20.95
2018-07-23T08:11:05.289Z,21.20
2018-07-23T08:13:38.678Z,25.02
2018-07-23T08:16:12.140Z,20.60
2018-07-23T08:18:45.612Z,22.95
2018-07-23T08:21:19.084Z,24.43
2018-07-23T08:23:52.541Z,20.68
2018-07-23T08:26:25.972Z,18.12
2018-07-23T08:28:59.413Z,18.32
2018-07-23T08:31:32.894Z,19.05
2018-07-23T08:34:06.345Z,17.32
2018-07-23T08:36:39.803Z,23.22
2018-07-23T08:39:19.944Z,20.72
2018-07-23T08:41:53.397Z,17.12
2018-07-23T08:44:26.853Z,19.57
2018-07-23T08:47:00.289Z,13.25
2018-07-23T08:49:33.749Z,18.92
2018-07-23T08:52:07.234Z,24.00
2018-07-23T08:54:40.623Z,23.52
2018-07-23T08:57:14.042Z,18.42
2018-07-23T08:59:47.460Z,18.65
2018-07-23T09:02:20.964Z,15.20
2018-07-23T09:04:54.362Z,15.75
2018-07-23T09:07:27.797Z,15.45
2018-07-23T09:10:01.192Z,16.50
2018-07-23T09:12:34.623Z,13.28
2018-07-23T09:15:08.110Z,14.90
2018-07-23T09:17:41.581Z,21.82
2018-07-23T09:20:15.003Z,17.50
2018-07-23T09:22:48.436Z,15.98
2018-07-23T09:25:21.859Z,15.15
2018-07-23T09:27:55.307Z,14.38
2018-07-23T09:30:34.104Z,16.12
2018-07-23T09:33:07.544Z,14.85
2018-07-23T09:35:41.007Z,15.20
2018-07-23T09:38:14.433Z,15.08
2018-07-23T09:40:47.853Z,17.60
2018-07-23T09:43:21.364Z,15.48
2018-07-23T09:45:54.760Z,20.68
2018-07-23T09:48:28.161Z,14.58
2018-07-23T09:51:01.569Z,18.77
2018-07-23T09:53:35.020Z,13.95
2018-07-23T09:56:08.720Z,14.33
2018-07-23T09:58:42.199Z,16.52
2018-07-23T10:01:18.184Z,15.23
2018-07-23T10:03:51.678Z,14.90
2018-07-23T10:06:25.092Z,13.55
2018-07-23T10:08:58.580Z,12.00
2018-07-23T10:11:32.009Z,13.15
2018-07-23T10:14:05.200Z,12.68
2018-07-23T10:16:38.413Z,13.08
2018-07-23T10:19:11.575Z,13.62
2018-07-23T10:21:45.009Z,12.88
2018-07-23T10:24:18.477Z,14.25
2018-07-23T10:26:51.905Z,13.83
2018-07-23T10:29:25.481Z,14.33
2018-07-23T10:31:58.898Z,12.47
2018-07-23T10:34:32.402Z,13.80
2018-07-23T10:37:05.868Z,13.05
2018-07-23T10:39:39.300Z,15.15
2018-07-23T10:42:12.773Z,13.20
2018-07-23T10:44:46.170Z,13.22
2018-07-23T10:47:19.584Z,11.65
2018-07-23T10:49:53.134Z,14.35
2018-07-23T10:52:26.581Z,11.20
2018-07-23T10:55:00.002Z,12.18
2018-07-23T10:57:33.460Z,11.20
2018-07-23T11:00:07.110Z,14.40
2018-07-23T11:02:40.608Z,12.13
2018-07-23T11:05:14.076Z,12.88
2018-07-23T11:07:47.526Z,12.30
2018-07-23T11:10:20.978Z,13.15
2018-07-23T11:12:54.454Z,11.93
2018-07-23T11:15:27.943Z,12.75
2018-07-23T11:18:01.358Z,13.05
2018-07-23T11:20:34.813Z,10.63
2018-07-23T11:23:08.320Z,11.38
2018-07-23T11:25:41.754Z,12.85
2018-07-23T11:28:15.224Z,11.33
2018-07-23T11:30:48.642Z,11.00
2018-07-23T11:33:22.067Z,10.58
2018-07-23T11:35:55.472Z,11.65
2018-07-23T11:38:28.932Z,11.08
2018-07-23T11:41:02.372Z,10.63
2018-07-23T11:43:35.840Z,12.63
2018-07-23T11:46:09.489Z,11.85
2018-07-23T11:48:42.945Z,11.55
2018-07-23T11:51:16.370Z,12.60
2018-07-23T11:53:49.799Z,11.75
2018-07-23T11:56:23.260Z,15.70
2018-07-23T11:58:56.721Z,12.07
2018-07-23T12:01:30.162Z,13.80
2018-07-23T12:04:03.673Z,12.35
2018-07-23T12:06:37.111Z,13.78
2018-07-23T12:09:11.273Z,12.53
2018-07-23T12:11:44.717Z,12.70
2018-07-23T12:14:18.137Z,11.97
2018-07-23T12:16:51.576Z,13.50
2018-07-23T12:19:24.959Z,13.20
2018-07-23T12:21:58.420Z,9.88
2018-07-23T12:24:31.879Z,11.40
2018-07-23T12:27:05.380Z,11.73
2018-07-23T12:29:38.845Z,9.68
2018-07-23T12:32:12.315Z,11.12
2018-07-23T12:34:45.770Z,10.78
2018-07-23T12:37:19.200Z,11.03
2018-07-23T12:39:52.749Z,11.28
2018-07-23T12:42:26.117Z,9.98
2018-07-23T12:44:59.550Z,12.58
2018-07-23T12:47:33.050Z,11.40
2018-07-23T12:50:06.491Z,9.70
2018-07-23T12:52:39.979Z,10.25
2018-07-23T12:55:13.412Z,11.53
2018-07-23T12:57:46.900Z,10.68
2018-07-23T13:00:20.380Z,12.07
2018-07-23T13:02:53.843Z,8.43
2018-07-23T13:05:33.857Z,10.95
2018-07-23T13:08:07.401Z,10.43
2018-07-23T13:10:40.825Z,12.82
2018-07-23T13:13:14.261Z,9.83
2018-07-23T13:15:47.712Z,10.20
2018-07-23T13:18:21.159Z,10.08
2018-07-23T13:20:54.572Z,11.03
2018-07-23T13:23:28.033Z,10.45
2018-07-23T13:26:01.514Z,10.68
2018-07-23T13:28:35.048Z,11.33
2018-07-23T13:31:08.546Z,13.05
2018-07-23T13:33:42.005Z,11.15
2018-07-23T13:36:15.430Z,9.93
2018-07-23T13:38:49.136Z,11.48
2018-07-23T13:41:22.583Z,11.28
2018-07-23T13:43:56.049Z,11.38
2018-07-23T13:46:29.541Z,9.28
2018-07-23T13:49:05.872Z,10.72
2018-07-23T13:51:39.320Z,10.63
2018-07-23T13:54:12.789Z,9.68
2018-07-23T13:56:46.265Z,9.90
2018-07-23T13:59:19.798Z,10.20
2018-07-23T14:01:53.242Z,10.18
2018-07-23T14:04:26.725Z,8.88
2018-07-23T14:07:00.257Z,10.00
2018-07-23T14:09:33.740Z,11.10
2018-07-23T14:12:07.288Z,9.10
2018-07-23T14:14:40.727Z,12.35
2018-07-23T14:17:14.196Z,10.13
2018-07-23T14:19:47.615Z,9.63
2018-07-23T14:22:21.164Z,12.05
2018-07-23T14:24:54.703Z,10.05
2018-07-23T14:27:28.132Z,9.68
2018-07-23T14:30:01.650Z,11.38
2018-07-23T14:32:35.130Z,11.05
2018-07-23T14:35:08.601Z,11.80
2018-07-23T14:37:42.089Z,11.40
2018-07-23T14:40:15.576Z,11.53
2018-07-23T14:42:49.049Z,10.18
2018-07-23T14:45:22.500Z,9.50
2018-07-23T14:47:55.982Z,9.98
2018-07-23T14:50:29.454Z,9.60
2018-07-23T14:53:03.097Z,9.30
2018-07-23T14:55:36.579Z,11.00
2018-07-23T14:58:10.056Z,11.43
2018-07-23T15:00:43.501Z,10.35
2018-07-23T15:03:16.988Z,10.63
2018-07-23T15:05:50.411Z,9.80
2018-07-23T15:08:23.894Z,9.70
2018-07-23T15:10:57.333Z,8.48
2018-07-23T15:13:30.757Z,8.68
2018-07-23T15:16:04.376Z,9.45
2018-07-23T15:18:37.777Z,8.95
2018-07-23T15:21:11.268Z,10.80
2018-07-23T15:23:44.774Z,9.30
2018-07-23T15:26:18.211Z,9.18
2018-07-23T15:28:51.703Z,8.03
2018-07-23T15:31:25.136Z,10.00
2018-07-23T15:33:58.626Z,8.75
2018-07-23T15:36:32.273Z,9.58
2018-07-23T15:39:08.030Z,9.55
2018-07-23T15:41:41.521Z,10.55
2018-07-23T15:44:14.718Z,9.90
2018-07-23T15:46:48.096Z,8.58
2018-07-23T15:49:21.583Z,8.50
2018-07-23T15:51:55.056Z,8.03
2018-07-23T15:54:28.479Z,7.87
2018-07-23T15:57:02.017Z,9.33
2018-07-23T15:59:35.512Z,8.55
2018-07-23T16:02:08.968Z,9.23
2018-07-23T16:04:42.437Z,7.00
2018-07-23T16:07:15.896Z,9.33
2018-07-23T16:09:49.515Z,8.43
2018-07-23T16:12:22.955Z,8.58
2018-07-23T16:14:56.447Z,7.60
2018-07-23T16:17:29.899Z,9.63
2018-07-23T16:20:03.400Z,8.65
2018-07-23T16:22:36.627Z,8.30
2018-07-23T16:25:10.277Z,7.85
2018-07-23T16:27:43.724Z,10.53
2018-07-23T16:30:17.228Z,10.10
2018-07-23T16:32:50.677Z,9.83
2018-07-23T16:35:24.161Z,9.75
2018-07-23T16:37:57.628Z,8.40
2018-07-23T16:40:31.448Z,9.53
2018-07-23T16:43:04.987Z,9.63
2018-07-23T16:45:38.576Z,8.60
2018-07-23T16:48:12.137Z,9.53
2018-07-23T16:50:45.614Z,10.13
2018-07-23T16:53:19.069Z,8.30
2018-07-23T16:55:52.520Z,8.23
2018-07-23T16:58:25.974Z,9.08
2018-07-23T17:00:59.436Z,8.75
2018-07-23T17:03:32.898Z,9.58
2018-07-23T17:06:06.371Z,9.18
2018-07-23T17:08:39.869Z,9.05
2018-07-23T17:11:13.389Z,8.33
2018-07-23T17:13:46.845Z,10.58
2018-07-23T17:16:20.296Z,8.45
2018-07-23T17:18:53.760Z,8.60
2018-07-23T17:21:27.284Z,9.28
2018-07-23T17:24:00.748Z,8.33
2018-07-23T17:26:34.182Z,8.80
2018-07-23T17:29:07.746Z,8.93
2018-07-23T17:31:41.184Z,8.68
2018-07-23T17:34:14.637Z,9.93
2018-07-23T17:36:48.117Z,9.50
2018-07-23T17:39:21.561Z,8.05
2018-07-23T17:41:55.882Z,9.23
2018-07-23T17:44:29.381Z,9.43
2018-07-23T17:47:02.824Z,10.32
2018-07-23T17:49:36.313Z,8.55
2018-07-23T17:52:09.929Z,8.33
2018-07-23T17:54:43.460Z,9.38
2018-07-23T17:57:16.927Z,8.98
2018-07-23T17:59:50.389Z,8.53
2018-07-23T18:02:23.870Z,8.78
2018-07-23T18:04:57.389Z,9.08
2018-07-23T18:07:30.836Z,8.40
2018-07-23T18:10:04.377Z,9.23
2018-07-23T18:12:37.760Z,8.93
2018-07-23T18:15:11.247Z,8.78
2018-07-23T18:17:44.769Z,10.82
2018-07-23T18:20:18.173Z,9.90
2018-07-23T18:22:51.648Z,9.23
2018-07-23T18:25:25.064Z,9.40
2018-07-23T18:27:58.580Z,8.28
2018-07-23T18:30:32.314Z,8.73
2018-07-23T18:33:05.812Z,10.32
2018-07-23T18:35:39.316Z,10.68
2018-07-23T18:38:12.938Z,13.60
2018-07-23T18:40:46.251Z,11.68
2018-07-23T18:43:19.726Z,13.72
2018-07-23T18:45:53.117Z,11.18
2018-07-23T18:49:38.115Z,12.73
2018-07-23T18:52:11.942Z,11.38
2018-07-23T18:54:46.744Z,9.90
2018-07-23T18:57:20.244Z,12.25
2018-07-23T18:59:53.774Z,12.37
2018-07-23T19:02:27.235Z,12.75
2018-07-23T19:05:00.750Z,11.43
2018-07-23T19:07:34.228Z,11.70
2018-07-23T19:10:09.330Z,12.95
2018-07-23T19:12:42.816Z,12.80
2018-07-23T19:15:16.334Z,13.25
2018-07-23T19:17:49.858Z,11.05
2018-07-23T19:20:23.455Z,13.15
2018-07-23T19:22:56.861Z,12.25
2018-07-23T19:25:30.321Z,12.10
2018-07-23T19:28:03.798Z,12.15
2018-07-23T19:30:37.255Z,15.05
2018-07-23T19:33:10.795Z,13.45
2018-07-23T19:35:44.277Z,12.10
2018-07-23T19:38:17.798Z,12.28
2018-07-23T19:40:51.276Z,13.08
2018-07-23T19:43:24.805Z,12.50
2018-07-23T19:45:58.562Z,11.63
2018-07-23T19:48:32.073Z,14.40
2018-07-23T19:51:05.628Z,11.90
2018-07-23T19:53:39.508Z,13.95
2018-07-23T19:56:13.009Z,12.80
2018-07-23T19:58:46.565Z,13.03
2018-07-23T20:01:20.028Z,13.58
2018-07-23T20:03:53.516Z,14.43
2018-07-23T20:06:27.689Z,16.62
2018-07-23T20:09:01.872Z,13.20
2018-07-23T20:11:35.326Z,14.30
2018-07-23T20:14:08.763Z,15.98
2018-07-23T20:16:42.253Z,13.20
2018-07-23T20:19:15.756Z,15.00
2018-07-23T20:21:49.297Z,12.63
2018-07-23T20:24:22.781Z,15.30
2018-07-23T20:26:56.284Z,15.83
2018-07-23T20:29:29.771Z,14.53
2018-07-23T20:32:03.265Z,16.90
2018-07-23T20:34:36.753Z,14.23
2018-07-23T20:37:10.283Z,17.85
2018-07-23T20:39:43.775Z,15.15
2018-07-23T20:42:17.253Z,14.93
2018-07-23T20:44:50.695Z,16.00
2018-07-23T20:47:24.404Z,15.50
2018-07-23T20:49:57.881Z,15.35
2018-07-23T20:52:31.347Z,15.30
2018-07-23T20:55:04.866Z,17.25
2018-07-23T20:57:38.357Z,14.95
2018-07-23T21:00:11.849Z,14.47
2018-07-23T21:02:45.372Z,14.73
2018-07-23T21:05:18.864Z,15.85
2018-07-23T21:07:52.327Z,14.10
2018-07-23T21:10:25.744Z,15.30
2018-07-23T21:12:59.479Z,15.00
2018-07-23T21:15:33.101Z,15.55
2018-07-23T21:18:06.727Z,16.35
2018-07-23T21:20:40.290Z,17.02
2018-07-23T21:23:13.764Z,16.05
2018-07-23T21:25:47.239Z,16.00
2018-07-23T21:28:20.673Z,17.65
2018-07-23T21:30:54.149Z,16.70
2018-07-23T21:33:27.596Z,15.32
2018-07-23T21:36:01.051Z,18.35
2018-07-23T21:38:34.473Z,15.65
2018-07-23T21:41:07.903Z,16.00
2018-07-23T21:43:52.907Z,17.23
2018-07-23T21:46:26.412Z,17.77
2018-07-23T21:48:59.832Z,16.60
2018-07-23T21:51:33.307Z,16.37
2018-07-23T21:54:06.820Z,16.27
2018-07-23T21:56:40.276Z,15.28
2018-07-23T21:59:13.884Z,16.17
2018-07-23T22:01:47.444Z,13.78
2018-07-23T22:04:20.860Z,14.65
2018-07-23T22:06:54.323Z,17.52
2018-07-23T22:09:27.842Z,15.35
2018-07-23T22:12:01.304Z,15.48
2018-07-23T22:14:34.730Z,18.87
2018-07-23T22:17:08.251Z,16.93
2018-07-23T22:19:41.678Z,16.48
2018-07-23T22:22:15.162Z,16.35
2018-07-23T22:24:48.582Z,17.65
2018-07-23T22:27:22.091Z,16.35
2018-07-23T22:29:55.534Z,17.73
2018-07-23T22:32:29.038Z,16.30
2018-07-23T22:35:02.537Z,15.78
2018-07-23T22:37:35.981Z,18.55
2018-07-23T22:40:09.476Z,16.52
2018-07-23T22:42:43.328Z,17.75
2018-07-23T22:45:16.752Z,19.27
2018-07-23T22:47:50.231Z,19.00
2018-07-23T22:50:23.685Z,16.17
2018-07-23T22:52:57.166Z,21.52
2018-07-23T22:55:30.596Z,17.52
2018-07-23T22:58:04.465Z,15.95
2018-07-23T23:00:37.595Z,17.35
2018-07-23T23:03:11.161Z,16.95
2018-07-23T23:05:44.594Z,15.90
2018-07-23T23:08:18.096Z,18.52
2018-07-23T23:10:51.535Z,17.27
2018-07-23T23:13:25.052Z,19.73
2018-07-23T23:15:58.495Z,16.67
2018-07-23T23:18:31.985Z,20.60
2018-07-23T23:21:05.428Z,19.75
2018-07-23T23:23:38.883Z,17.57
2018-07-23T23:26:12.283Z,18.12
2018-07-23T23:28:45.712Z,17.60
2018-07-23T23:31:19.124Z,17.82
2018-07-23T23:33:52.582Z,19.12
2018-07-23T23:36:25.972Z,20.32
2018-07-23T23:38:59.417Z,18.65
2018-07-23T23:41:32.828Z,18.87
2018-07-23T23:44:06.284Z,19.87
2018-07-23T23:46:39.731Z,16.80
2018-07-23T23:49:13.157Z,21.87
2018-07-23T23:51:46.596Z,16.27
2018-07-23T23:54:20.009Z,17.50
2018-07-23T23:56:53.423Z,21.12
2018-07-23T23:59:26.845Z,18.90
